createdAt,value
2022-11-15T00:02:06.389Z,12.23
2022-11-15T00:07:08.123Z,5.32
2022-11-15T00:12:09.839Z,6.65
2022-11-15T00:17:11.561Z,7.90
2022-11-15T00:22:13.230Z,12.65
2022-11-15T00:27:14.942Z,37.90
2022-11-15T00:32:17.008Z,23.98
2022-11-15T00:37:18.684Z,21.73
2022-11-15T00:42:20.338Z,12.05
2022-11-15T00:47:21.988Z,9.57
2022-11-15T00:52:23.825Z,11.68
2022-11-15T00:57:25.471Z,12.93
2022-11-15T01:02:27.132Z,13.73
2022-11-15T01:07:28.858Z,21.63
2022-11-15T01:12:30.789Z,13.50
2022-11-15T01:17:32.653Z,20.75
2022-11-15T01:22:34.327Z,10.55
2022-11-15T01:27:35.961Z,17.30
2022-11-15T01:32:37.684Z,27.55
2022-11-15T01:37:39.388Z,23.73
2022-11-15T01:42:41.130Z,13.68
2022-11-15T01:47:49.625Z,9.32
2022-11-15T01:52:51.698Z,12.25
2022-11-15T01:57:58.779Z,9.20
2022-11-15T02:03:00.760Z,3.47
2022-11-15T02:08:02.701Z,13.60
2022-11-15T02:13:04.535Z,10.98
2022-11-15T02:18:16.450Z,11.85
2022-11-15T02:23:51.962Z,7.03
2022-11-15T02:29:15.047Z,3.90
2022-11-15T02:34:35.263Z,7.40
2022-11-15T02:39:45.513Z,2.83
2022-11-15T02:44:47.760Z,10.75
2022-11-15T02:49:51.988Z,3.40
2022-11-15T02:54:56.252Z,2.45
2022-11-15T03:00:08.069Z,5.28
2022-11-15T03:05:34.225Z,5.53
2022-11-15T03:10:41.647Z,5.28
2022-11-15T03:15:53.894Z,5.55
2022-11-15T03:20:58.898Z,16.33
2022-11-15T03:26:01.890Z,28.92
2022-11-15T03:31:25.055Z,8.68
2022-11-15T03:36:27.824Z,3.35
2022-11-15T03:41:38.636Z,7.03
2022-11-15T03:47:04.315Z,7.40
2022-11-15T03:52:06.849Z,2.10
2022-11-15T03:57:08.543Z,3.03
2022-11-15T04:02:10.620Z,1.77
2022-11-15T04:07:12.696Z,2.58
2022-11-15T04:12:31.456Z,11.35
2022-11-15T04:17:33.104Z,5.72
2022-11-15T04:22:54.114Z,10.40
2022-11-15T04:27:56.235Z,5.80
2022-11-15T04:32:57.954Z,3.05
2022-11-15T04:38:00.300Z,3.38
2022-11-15T04:43:04.113Z,6.00
2022-11-15T04:48:06.086Z,5.30
2022-11-15T04:53:07.812Z,3.78
2022-11-15T04:58:10.536Z,3.30
2022-11-15T05:03:30.961Z,6.38
2022-11-15T05:08:32.956Z,2.85
2022-11-15T05:13:34.667Z,5.40
2022-11-15T05:18:36.923Z,4.00
2022-11-15T05:23:39.210Z,3.45
2022-11-15T05:28:41.342Z,4.15
2022-11-15T05:33:44.206Z,2.78
2022-11-15T05:38:47.010Z,6.15
2022-11-15T05:43:50.324Z,5.40
2022-11-15T05:48:54.535Z,5.72
2022-11-15T05:53:59.055Z,5.10
2022-11-15T05:59:01.070Z,3.22
2022-11-15T06:04:03.136Z,2.75
2022-11-15T06:09:04.816Z,9.77
2022-11-15T06:14:06.508Z,8.50
2022-11-15T06:19:08.969Z,6.15
2022-11-15T06:24:10.703Z,5.25
2022-11-15T06:29:12.362Z,4.88
2022-11-15T06:34:14.069Z,3.03
2022-11-15T06:39:15.743Z,7.70
2022-11-15T06:44:17.478Z,3.85
2022-11-15T06:49:19.149Z,9.23
2022-11-15T06:54:21.936Z,3.92
2022-11-15T06:59:23.650Z,7.72
2022-11-15T07:04:25.357Z,5.28
2022-11-15T07:09:27.791Z,5.30
2022-11-15T07:14:29.471Z,16.77
2022-11-15T07:19:31.226Z,17.88
2022-11-15T07:24:32.918Z,14.05
2022-11-15T07:29:34.640Z,14.02
2022-11-15T07:34:36.324Z,13.23
2022-11-15T07:39:38.003Z,32.35
2022-11-15T07:44:39.617Z,39.10
2022-11-15T07:49:41.459Z,35.55
2022-11-15T07:54:43.112Z,26.90
2022-11-15T07:59:44.809Z,28.77
2022-11-15T08:04:46.691Z,13.73
2022-11-15T08:09:48.446Z,40.78
2022-11-15T08:14:50.619Z,59.28
2022-11-15T08:19:52.355Z,55.53
2022-11-15T08:24:54.005Z,62.42
2022-11-15T08:29:59.430Z,44.25
2022-11-15T08:35:01.393Z,62.33
2022-11-15T08:40:03.476Z,55.63
2022-11-15T08:45:05.596Z,42.65
2022-11-15T08:50:07.995Z,41.75
2022-11-15T08:55:09.886Z,38.38
2022-11-15T09:00:13.127Z,32.67
2022-11-15T09:05:16.428Z,22.52
2022-11-15T09:10:18.363Z,12.05
2022-11-15T09:15:20.760Z,11.48
2022-11-15T09:20:22.438Z,12.70
2022-11-15T09:25:24.083Z,15.20
2022-11-15T09:30:26.610Z,11.90
2022-11-15T09:35:28.258Z,9.13
2022-11-15T09:40:32.634Z,13.40
2022-11-15T09:45:48.179Z,10.13
2022-11-15T09:50:51.955Z,8.02
2022-11-15T09:56:01.276Z,6.10
2022-11-15T10:01:11.324Z,7.50
2022-11-15T10:06:24.280Z,10.23
2022-11-15T10:11:39.788Z,9.48
2022-11-15T10:17:07.493Z,8.48
2022-11-15T10:22:31.529Z,7.15
2022-11-15T10:27:33.257Z,6.25
2022-11-15T10:32:37.195Z,9.05
2022-11-15T10:37:38.847Z,7.93
2022-11-15T10:42:40.660Z,7.80
2022-11-15T10:47:42.411Z,9.23
2022-11-15T10:52:47.829Z,8.10
2022-11-15T10:57:56.319Z,8.52
2022-11-15T11:03:06.514Z,6.50
2022-11-15T11:08:11.283Z,19.00
2022-11-15T11:13:24.054Z,8.55
2022-11-15T11:18:48.011Z,6.88
2022-11-15T11:23:59.589Z,10.13
2022-11-15T11:29:30.932Z,5.93
2022-11-15T11:34:55.177Z,6.10
2022-11-15T11:40:13.942Z,6.88
2022-11-15T11:45:36.788Z,9.98
2022-11-15T11:50:39.538Z,9.43
2022-11-15T11:55:46.862Z,12.38
2022-11-15T12:00:53.310Z,7.68
2022-11-15T12:06:02.779Z,6.40
2022-11-15T12:11:16.061Z,6.30
2022-11-15T12:16:20.091Z,4.38
2022-11-15T12:22:04.748Z,7.13
2022-11-15T12:27:41.579Z,10.10
2022-11-15T12:33:01.447Z,6.57
2022-11-15T12:38:03.250Z,6.50
2022-11-15T12:43:13.842Z,7.47
2022-11-15T12:48:18.582Z,5.15
2022-11-15T12:53:26.424Z,4.82
2022-11-15T12:58:39.874Z,4.97
2022-11-15T13:04:13.874Z,5.13
2022-11-15T13:09:39.063Z,6.93
2022-11-15T13:14:47.997Z,3.45
2022-11-15T13:19:59.648Z,4.50
2022-11-15T13:25:05.382Z,3.83
2022-11-15T13:30:14.274Z,2.75
2022-11-15T13:35:24.582Z,4.30
2022-11-15T13:40:31.234Z,4.00
2022-11-15T13:45:32.909Z,1.45
2022-11-15T13:50:38.004Z,3.63
2022-11-15T13:55:39.716Z,9.63
2022-11-15T14:00:46.040Z,8.48
2022-11-15T14:06:21.713Z,10.05
2022-11-15T14:11:23.397Z,8.10
2022-11-15T14:16:38.243Z,6.18
2022-11-15T14:22:32.264Z,12.02
2022-11-15T14:27:34.766Z,14.68
2022-11-15T14:32:50.790Z,10.00
2022-11-15T14:37:52.528Z,12.70
2022-11-15T14:42:54.236Z,13.35
2022-11-15T14:47:56.157Z,14.18
2022-11-15T14:52:57.834Z,6.03
2022-11-15T14:58:00.133Z,11.65
2022-11-15T15:03:02.317Z,9.10
2022-11-15T15:08:04.731Z,8.63
2022-11-15T15:13:07.338Z,3.53
2022-11-15T15:18:09.631Z,4.65
2022-11-15T15:23:21.423Z,4.82
2022-11-15T15:28:23.133Z,15.63
2022-11-15T15:33:24.805Z,20.60
2022-11-15T15:38:26.507Z,14.75
2022-11-15T15:43:28.697Z,5.63
2022-11-15T15:48:30.784Z,11.23
2022-11-15T15:53:32.856Z,9.20
2022-11-15T15:58:35.432Z,2.40
2022-11-15T16:03:37.388Z,6.88
2022-11-15T16:09:00.512Z,8.68
2022-11-15T16:14:00.721Z,13.18
2022-11-15T16:19:02.487Z,11.88
2022-11-15T16:24:04.514Z,14.40
2022-11-15T16:29:07.842Z,6.40
2022-11-15T16:34:09.560Z,8.18
2022-11-15T16:39:15.728Z,7.72
2022-11-15T16:44:17.382Z,26.70
2022-11-15T16:49:20.624Z,36.92
2022-11-15T16:54:22.316Z,45.85
2022-11-15T16:59:24.010Z,30.10
2022-11-15T17:04:27.713Z,119.95
2022-11-15T17:09:29.450Z,110.60
2022-11-15T17:14:31.182Z,87.32
2022-11-15T17:19:32.900Z,73.95
2022-11-15T17:24:34.698Z,90.60
2022-11-15T17:29:36.426Z,63.65
2022-11-15T17:34:38.531Z,58.33
2022-11-15T17:39:40.594Z,39.72
2022-11-15T17:44:42.285Z,23.63
2022-11-15T17:49:43.997Z,16.20
2022-11-15T17:54:45.653Z,5.50
2022-11-15T17:59:48.706Z,16.17
2022-11-15T18:04:50.461Z,5.72
2022-11-15T18:09:53.663Z,8.50
2022-11-15T18:14:55.586Z,5.95
2022-11-15T18:19:58.605Z,20.63
2022-11-15T18:25:00.267Z,22.10
2022-11-15T18:30:01.956Z,23.23
2022-11-15T18:35:04.488Z,41.17
2022-11-15T18:40:06.804Z,15.02
2022-11-15T18:45:09.549Z,21.67
2022-11-15T18:50:11.211Z,18.30
2022-11-15T18:55:14.408Z,5.65
2022-11-15T19:00:16.901Z,33.22
2022-11-15T19:05:21.308Z,11.25
2022-11-15T19:10:22.984Z,18.38
2022-11-15T19:15:24.645Z,6.60
2022-11-15T19:20:26.360Z,8.98
2022-11-15T19:25:29.950Z,10.48
2022-11-15T19:30:31.642Z,14.48
2022-11-15T19:35:33.747Z,9.30
2022-11-15T19:40:36.010Z,10.85
2022-11-15T19:45:38.292Z,15.00
2022-11-15T19:50:40.347Z,33.55
2022-11-15T19:55:42.546Z,35.20
2022-11-15T20:00:44.323Z,32.20
2022-11-15T20:05:46.412Z,25.58
2022-11-15T20:10:48.896Z,27.80
2022-11-15T20:15:50.608Z,41.72
2022-11-15T20:20:52.605Z,34.65
2022-11-15T20:25:54.981Z,38.25
2022-11-15T20:30:58.960Z,33.40
2022-11-15T20:36:09.512Z,55.20
2022-11-15T20:41:12.609Z,20.77
2022-11-15T20:46:14.818Z,28.17
2022-11-15T20:51:18.271Z,23.48
2022-11-15T20:56:21.834Z,13.90
2022-11-15T21:01:24.768Z,25.13
2022-11-15T21:06:27.518Z,26.95
2022-11-15T21:11:48.471Z,30.08
2022-11-15T21:16:50.366Z,25.48
2022-11-15T21:21:52.035Z,22.15
2022-11-15T21:26:54.698Z,10.32
2022-11-15T21:31:56.454Z,10.63
2022-11-15T21:36:58.849Z,11.68
2022-11-15T21:42:00.588Z,14.65
2022-11-15T21:47:02.471Z,14.73
2022-11-15T21:52:04.573Z,13.90
2022-11-15T21:57:06.271Z,16.55
2022-11-15T22:02:15.481Z,13.75
2022-11-15T22:07:17.627Z,14.00
2022-11-15T22:12:19.414Z,13.52
2022-11-15T22:17:21.522Z,10.63
2022-11-15T22:22:23.203Z,9.77
2022-11-15T22:27:24.973Z,11.15
2022-11-15T22:32:26.677Z,10.45
2022-11-15T22:37:28.828Z,12.77
2022-11-15T22:42:32.242Z,12.88
2022-11-15T22:47:34.100Z,8.23
2022-11-15T22:52:35.914Z,12.20
2022-11-15T22:57:40.449Z,22.05
2022-11-15T23:02:42.603Z,24.15
2022-11-15T23:07:45.660Z,20.05
2022-11-15T23:13:05.992Z,17.73
2022-11-15T23:18:07.673Z,18.88
2022-11-15T23:23:09.382Z,11.52
2022-11-15T23:28:11.094Z,10.50
2022-11-15T23:33:33.329Z,14.48
2022-11-15T23:43:39.882Z,7.10
2022-11-15T23:48:41.637Z,12.88
2022-11-15T23:53:43.657Z,10.93
2022-11-15T23:58:45.919Z,16.02
